»·PEaware :: N511H KFUL-KSBA

N511H :: KFUL-KSBA

FLIGHT INFORMATION

Flight Status: Arrived
Operator: Privately registered:
United States
More flights under this callsign
Pilot: Edward H. (2712)
Aircraft: Unknown
(B429)
More flights by this aircraft type
Origin: KFUL Fullerton Mun
United States
Destination: KSBA Santa Barbara Mun
United States
More flights between these airports :: More routes between these airports
Route: +
File this flight plan on PilotEdge
Remarks:
Altitude:
(Current/Filed)
0ft
Speed:
(Current/Filed)
0kts
Departed: 01-Jul-18 08:08 AM
Arrived: 01-Jul-18 09:12 AM
Distance/Time
Traveled:
98nm/1:04
Distance/Time
To Go:
Arrived

Flight Plot

Page will automatically refresh every two minutes.

Flight plan parsing failed; only flown route is shown


Map Options




Map Legend


Flown Route
Filed Route
Departure Airport
Arrival Airport
Navaid (VOR, NDB)
Fix

Horizontal Profiles

Position Reports

Time Latitude Longitude Heading Altitude Ground
Speed
01-Jul-18 08:01 33.871279 -117.977135 258 101ft 0kts
01-Jul-18 08:02 33.871279 -117.977135 258 101ft 0kts
01-Jul-18 08:03 33.871279 -117.977135 258 101ft 0kts
01-Jul-18 08:04 33.871279 -117.977136 258 101ft 0kts
01-Jul-18 08:05 33.871279 -117.977136 258 101ft 0kts
01-Jul-18 08:06 33.871279 -117.977136 258 101ft 0kts
01-Jul-18 08:07 33.871286 -117.977144 268 104ft 2kts
01-Jul-18 08:08 33.886628 -118.002276 290 385ft 145kts
01-Jul-18 08:09 33.899145 -118.038296 296 872ft 138kts
01-Jul-18 08:10 33.922311 -118.075179 306 882ft 153kts
01-Jul-18 08:11 33.949736 -118.105406 317 1271ft 143kts
01-Jul-18 08:12 33.977386 -118.139110 326 968ft 145kts
01-Jul-18 08:13 33.969876 -118.107621 125 725ft 146kts
01-Jul-18 08:14 33.943389 -118.071168 131 675ft 145kts
01-Jul-18 08:15 33.914438 -118.035122 125 502ft 152kts
01-Jul-18 08:16 33.887266 -117.998980 129 498ft 138kts
01-Jul-18 08:17 33.871442 -117.977613 108 187ft 7kts
01-Jul-18 08:18 33.871251 -117.977185 59 102ft 0kts
01-Jul-18 08:19 33.871246 -117.977182 352 101ft 0kts
01-Jul-18 08:20 33.871246 -117.977182 352 101ft 0kts
01-Jul-18 08:21 33.871246 -117.977182 352 101ft 0kts
01-Jul-18 08:22 33.871246 -117.977182 352 101ft 0kts
01-Jul-18 08:23 33.871246 -117.977182 352 101ft 0kts
01-Jul-18 08:24 33.871246 -117.977182 352 101ft 0kts
01-Jul-18 08:25 33.871246 -117.977182 352 101ft 0kts
01-Jul-18 08:26 33.872288 -117.977949 327 189ft 48kts
01-Jul-18 08:27 33.888380 -118.007842 302 541ft 136kts
01-Jul-18 08:28 33.903935 -118.053096 309 820ft 147kts
01-Jul-18 08:29 33.933232 -118.086974 322 1240ft 146kts
01-Jul-18 08:30 33.965768 -118.118735 320 1285ft 154kts
01-Jul-18 08:31 33.999826 -118.148895 311 1413ft 143kts
01-Jul-18 08:32 34.022021 -118.192006 292 1192ft 155kts
01-Jul-18 08:33 34.050007 -118.227963 313 1085ft 148kts
01-Jul-18 08:34 34.068114 -118.271319 276 1202ft 148kts
01-Jul-18 08:35 34.073142 -118.321938 275 1155ft 152kts
01-Jul-18 08:36 34.078614 -118.372850 277 1122ft 152kts
01-Jul-18 08:37 34.083854 -118.416848 276 1439ft 127kts
01-Jul-18 08:38 34.090042 -118.458628 284 1519ft 124kts
01-Jul-18 08:39 34.076563 -118.495852 236 1318ft 128kts
01-Jul-18 08:40 34.059794 -118.532866 250 1395ft 127kts
01-Jul-18 08:41 34.046247 -118.580358 248 1233ft 155kts
01-Jul-18 08:42 34.040423 -118.630879 269 1263ft 156kts
01-Jul-18 08:43 34.040279 -118.681672 269 1294ft 152kts
01-Jul-18 08:44 34.036531 -118.732426 255 1293ft 152kts
01-Jul-18 08:45 34.029245 -118.782847 269 1269ft 154kts
01-Jul-18 08:46 34.031663 -118.834380 271 1275ft 154kts
01-Jul-18 08:47 34.040171 -118.884737 284 1276ft 157kts
01-Jul-18 08:48 34.052348 -118.934585 285 1275ft 157kts
01-Jul-18 08:50 34.064531 -118.984664 285 1278ft 155kts
01-Jul-18 08:51 34.079302 -119.033877 290 1267ft 157kts
01-Jul-18 08:52 34.094755 -119.082438 290 1206ft 156kts
01-Jul-18 08:53 34.095389 -119.132702 290 1034ft 155kts
01-Jul-18 08:54 34.118984 -119.174407 307 1005ft 155kts
01-Jul-18 08:55 34.146397 -119.214925 309 998ft 155kts
01-Jul-18 08:56 34.180640 -119.244912 312 1007ft 154kts
01-Jul-18 08:57 34.207941 -119.285291 305 995ft 155kts
01-Jul-18 08:58 34.233043 -119.328106 304 990ft 156kts
01-Jul-18 08:59 34.257682 -119.371178 303 1004ft 155kts
01-Jul-18 09:00 34.281379 -119.414408 302 1001ft 154kts
01-Jul-18 09:01 34.304184 -119.458454 295 995ft 155kts
01-Jul-18 09:02 34.322179 -119.505727 293 928ft 153kts
01-Jul-18 09:03 34.338991 -119.553383 294 445ft 155kts
01-Jul-18 09:04 34.355286 -119.601253 292 445ft 153kts
01-Jul-18 09:05 34.371144 -119.648989 292 414ft 153kts
01-Jul-18 09:06 34.386989 -119.696822 292 432ft 153kts
01-Jul-18 09:07 34.399792 -119.740279 290 538ft 141kts
01-Jul-18 09:08 34.412883 -119.784570 290 564ft 140kts
01-Jul-18 09:09 34.418911 -119.818105 254 673ft 73kts
01-Jul-18 09:10 34.422235 -119.825354 116 515ft 53kts
01-Jul-18 09:11 34.417712 -119.832648 345 225ft 51kts
01-Jul-18 09:12 34.432155 -119.840990 173 268ft 54kts
01-Jul-18 09:13 34.430009 -119.839327 349 35ft 27kts
01-Jul-18 09:14 34.431620 -119.834805 264 19ft 1kts
01-Jul-18 09:15 34.431615 -119.834835 269 18ft 0kts
01-Jul-18 09:16 34.431615 -119.834835 269 18ft 0kts
01-Jul-18 09:17 34.431615 -119.834835 269 18ft 0kts
01-Jul-18 09:18 34.431615 -119.834835 269 18ft 0kts
01-Jul-18 09:19 34.431615 -119.834835 269 18ft 0kts
01-Jul-18 09:20 34.431615 -119.834835 269 18ft 0kts
01-Jul-18 09:20 34.431615 -119.834835 269 18ft 0kts
01-Jul-18 09:22 34.431615 -119.834835 269 18ft 0kts
01-Jul-18 09:23 34.431615 -119.834835 269 18ft 0kts
01-Jul-18 09:24 34.431615 -119.834835 269 18ft 0kts
01-Jul-18 09:24 34.431615 -119.834835 269 18ft 0kts
01-Jul-18 09:25 34.431615 -119.834835 269 18ft 0kts
01-Jul-18 09:26 34.431615 -119.834835 269 18ft 0kts
01-Jul-18 09:27 34.431615 -119.834835 269 18ft 0kts

Navigation Log

Ident Type
Flight plan parsing failed, navigation log unavailable